Time;durP1;ratioP1;P1;durP2;ratioP2;P2;SDS_P1;SDS_P2;PMS_P1;PMS_P2;Temp;Humidity;BMP_temperature;BMP_pressure;BME280_temperature;BME280_humidity;BME280_pressure;Samples;Min_cycle;Max_cycle;Signal;HPM_P1;HPM_P2
2022/10/03 00:00:21;;;;;;;8.40;1.58;;;;;;;8.85;95.72;102081.00;10353063;28;20354;-77
2022/10/03 00:05:51;;;;;;;13.82;2.20;;;;;;;8.82;95.72;102078.25;10356832;28;20457;-77
2022/10/03 00:11:01;;;;;;;12.77;1.58;;;;;;;8.83;95.73;102085.25;10354955;28;20049;-77
2022/10/03 00:16:35;;;;;;;8.32;1.27;;;;;;;8.78;96.04;102086.75;10338159;28;20437;-77
2022/10/03 00:22:00;;;;;;;12.65;1.90;;;;;;;8.77;96.04;102091.09;10321857;28;20137;-77
2022/10/03 00:27:12;;;;;;;8.40;1.83;;;;;;;8.75;96.10;102091.84;10356596;28;20096;-78
2022/10/03 00:32:29;;;;;;;11.85;1.95;;;;;;;8.67;96.16;102104.56;10360426;28;20049;-77
2022/10/03 00:38:04;;;;;;;7.97;1.40;;;;;;;8.61;96.11;102105.16;10363468;28;20806;-77
2022/10/03 00:43:20;;;;;;;12.13;2.47;;;;;;;8.54;96.40;102103.13;10344828;28;20481;-78
2022/10/03 00:48:51;;;;;;;8.02;1.38;;;;;;;8.51;96.35;102115.13;10345482;28;20046;-77
2022/10/03 00:54:07;;;;;;;9.85;1.50;;;;;;;8.58;96.20;102120.69;10362338;28;20045;-78
2022/10/03 00:59:43;;;;;;;12.05;1.40;;;;;;;8.54;96.59;102120.47;10360140;28;20076;-77
2022/10/03 01:05:11;;;;;;;10.32;1.38;;;;;;;8.51;96.57;102129.03;10355130;28;20049;-78
2022/10/03 01:11:04;;;;;;;14.27;2.65;;;;;;;8.51;96.73;102133.38;10344183;28;20057;-77
2022/10/03 01:16:53;;;;;;;11.00;1.83;;;;;;;8.49;96.58;102136.81;10328943;28;20053;-78
2022/10/03 01:22:01;;;;;;;16.38;2.15;;;;;;;8.53;96.79;102140.47;10360137;28;20060;-78
2022/10/03 01:27:09;;;;;;;12.32;1.88;;;;;;;8.70;96.81;102136.03;10344498;28;20128;-77
2022/10/03 01:32:24;;;;;;;18.83;2.33;;;;;;;8.80;96.98;102142.59;10358643;28;20049;-77
2022/10/03 01:37:38;;;;;;;9.32;1.52;;;;;;;8.85;96.93;102138.47;10357099;28;20169;-78
2022/10/03 01:42:53;;;;;;;10.52;1.52;;;;;;;8.78;97.02;102149.44;10341165;28;20104;-77
2022/10/03 01:48:01;;;;;;;9.77;1.83;;;;;;;8.80;97.23;102166.09;10360621;28;20100;-78
2022/10/03 01:53:12;;;;;;;5.53;1.30;;;;;;;8.75;96.99;102154.53;10341516;28;20053;-78
2022/10/03 01:58:27;;;;;;;10.43;1.70;;;;;;;8.74;96.90;102176.25;10355473;28;20054;-79
2022/10/03 02:03:44;;;;;;;11.02;1.35;;;;;;;8.68;97.06;102174.25;10341393;28;20038;-79
2022/10/03 02:08:54;;;;;;;10.10;1.85;;;;;;;8.64;97.20;102175.81;10339584;28;20592;-79
2022/10/03 02:14:26;;;;;;;13.68;2.08;;;;;;;8.59;97.12;102179.03;10358269;28;20053;-79
2022/10/03 02:19:44;;;;;;;7.35;1.70;;;;;;;8.55;97.01;102177.97;10335963;28;20050;-79
2022/10/03 02:25:25;;;;;;;13.07;2.00;;;;;;;8.56;96.91;102179.78;10358230;28;20506;-79
2022/10/03 02:31:05;;;;;;;9.38;1.50;;;;;;;8.55;97.20;102192.75;10357721;28;20065;-78
2022/10/03 02:36:26;;;;;;;15.55;2.03;;;;;;;8.66;97.13;102187.22;10358309;28;20083;-78
2022/10/03 02:41:51;;;;;;;15.02;1.88;;;;;;;8.74;97.11;102191.94;10352747;28;20674;-78
2022/10/03 02:47:14;;;;;;;8.88;1.70;;;;;;;8.74;97.24;102179.75;10341340;28;20042;-79
2022/10/03 02:52:31;;;;;;;15.77;2.05;;;;;;;8.78;97.01;102186.91;10352630;28;20058;-77
2022/10/03 02:57:48;;;;;;;8.98;1.42;;;;;;;8.80;97.36;102192.22;10357738;28;20551;-77
2022/10/03 03:03:23;;;;;;;6.15;1.50;;;;;;;8.70;97.33;102198.69;10354519;28;20053;-78
2022/10/03 03:08:49;;;;;;;11.07;1.27;;;;;;;8.61;97.17;102196.53;10355974;28;20702;-79
2022/10/03 03:14:08;;;;;;;9.43;1.83;;;;;;;8.55;97.28;102206.69;10356548;28;20062;-78
2022/10/03 03:19:37;;;;;;;10.57;1.50;;;;;;;8.50;97.20;102210.81;10356928;28;20073;-79
2022/10/03 03:24:55;;;;;;;8.93;1.85;;;;;;;8.51;97.15;102219.53;10359993;28;20050;-78
2022/10/03 03:30:10;;;;;;;6.75;1.25;;;;;;;8.47;97.21;102208.94;10354144;28;20050;-79
2022/10/03 03:35:51;;;;;;;10.25;1.50;;;;;;;8.46;97.39;102214.09;10338487;28;20552;-81
2022/10/03 03:41:16;;;;;;;14.48;1.63;;;;;;;8.38;97.32;102215.41;10321680;28;20037;-78
2022/10/03 03:46:37;;;;;;;9.25;1.55;;;;;;;8.36;97.53;102217.94;10333072;28;20128;-78
2022/10/03 03:51:41;;;;;;;11.40;2.30;;;;;;;8.35;97.39;102213.53;10356794;28;20042;-79
2022/10/03 03:57:13;;;;;;;7.85;1.60;;;;;;;8.26;97.30;102221.81;10338679;28;20042;-79
2022/10/03 04:02:25;;;;;;;11.20;1.63;;;;;;;8.25;97.30;102225.22;10315981;28;20057;-78
2022/10/03 04:07:55;;;;;;;10.95;1.52;;;;;;;8.22;97.35;102230.28;10355817;28;20133;-79
2022/10/03 04:13:10;;;;;;;10.73;1.80;;;;;;;8.18;97.52;102224.84;10354070;28;20058;-79
2022/10/03 04:24:26;;;;;;;6.13;1.10;;;;;;;8.11;97.43;102247.16;10352800;28;20510;-78
2022/10/03 04:30:03;;;;;;;7.88;1.85;;;;;;;8.16;97.53;102253.47;10312906;28;20498;-80
2022/10/03 04:35:44;;;;;;;3.85;1.65;;;;;;;8.25;97.66;102255.66;10357976;28;20112;-78
2022/10/03 04:40:56;;;;;;;8.52;1.98;;;;;;;8.34;97.78;102250.00;10299414;28;20238;-78
2022/10/03 04:46:29;;;;;;;8.43;1.85;;;;;;;8.45;97.97;102259.28;10354820;28;20501;-80
2022/10/03 04:51:44;;;;;;;10.23;1.23;;;;;;;8.48;97.94;102262.03;10320036;28;20447;-79
2022/10/03 04:57:06;;;;;;;8.35;1.50;;;;;;;8.54;97.88;102267.59;10354434;28;20057;-79
2022/10/03 05:02:17;;;;;;;11.90;1.42;;;;;;;8.56;97.83;102275.50;10353823;28;20053;-79
2022/10/03 05:07:24;;;;;;;18.10;2.30;;;;;;;8.62;98.08;102276.69;10353546;28;20056;-79
2022/10/03 05:12:54;;;;;;;11.88;1.70;;;;;;;8.59;97.96;102279.16;10354352;28;20046;-80
2022/10/03 05:18:11;;;;;;;6.57;1.50;;;;;;;8.59;98.05;102286.09;10358536;28;20181;-81
2022/10/03 05:23:31;;;;;;;9.82;1.40;;;;;;;8.69;97.97;102279.59;10360313;28;20065;-79
2022/10/03 05:28:44;;;;;;;18.75;2.00;;;;;;;8.72;98.25;102284.97;10360749;28;20571;-80
2022/10/03 05:33:55;;;;;;;9.07;1.70;;;;;;;8.73;98.23;102287.66;10343293;28;20046;-79
2022/10/03 05:39:18;;;;;;;12.43;2.17;;;;;;;8.69;98.03;102296.13;10358675;28;20046;-79
2022/10/03 05:44:38;;;;;;;10.15;1.45;;;;;;;8.60;98.29;102301.84;10359062;28;20548;-80
2022/10/03 05:50:22;;;;;;;7.95;1.60;;;;;;;8.59;98.14;102297.41;10360230;28;20083;-79
2022/10/03 05:55:51;;;;;;;13.77;1.88;;;;;;;8.59;98.16;102300.03;10348026;28;20131;-79
2022/10/03 06:01:07;;;;;;;11.35;1.90;;;;;;;8.56;98.01;102297.28;10363761;28;20426;-79
2022/10/03 06:06:29;;;;;;;10.75;1.80;;;;;;;8.56;98.28;102302.50;10364328;28;20567;-81
2022/10/03 06:11:37;;;;;;;7.82;1.73;;;;;;;8.58;98.08;102302.56;10359624;28;20476;-79
2022/10/03 06:16:57;;;;;;;7.47;2.17;;;;;;;8.58;98.29;102313.00;10364273;28;20061;-80
2022/10/03 06:22:23;;;;;;;7.37;1.77;;;;;;;8.55;98.31;102318.09;10362772;28;20514;-79
2022/10/03 06:27:39;;;;;;;4.97;1.35;;;;;;;8.57;98.02;102312.13;10342536;28;20053;-79
2022/10/03 06:33:13;;;;;;;8.57;1.58;;;;;;;8.63;98.11;102317.66;10361055;28;20057;-81
2022/10/03 06:38:39;;;;;;;12.25;2.60;;;;;;;8.86;98.25;102323.09;10361066;28;20062;-80
2022/10/03 06:44:14;;;;;;;11.05;3.15;;;;;;;9.17;98.36;102325.47;10358677;28;20057;-80
2022/10/03 06:49:44;;;;;;;13.18;2.30;;;;;;;9.33;98.31;102327.06;10365320;28;20061;-80
2022/10/03 06:55:30;;;;;;;16.55;2.22;;;;;;;9.44;98.51;102326.69;10346379;28;20050;-80
2022/10/03 07:00:51;;;;;;;10.68;1.50;;;;;;;9.68;98.46;102321.69;10345508;28;20058;-80
2022/10/03 07:06:20;;;;;;;6.93;1.52;;;;;;;9.94;98.48;102315.00;10350030;28;20057;-82
2022/10/03 07:11:27;;;;;;;7.00;1.45;;;;;;;10.15;98.46;102335.06;10362963;28;20050;-81
2022/10/03 07:16:48;;;;;;;9.32;1.75;;;;;;;10.25;98.14;102339.88;10343480;28;20428;-79
2022/10/03 07:22:09;;;;;;;11.80;1.60;;;;;;;10.35;97.96;102341.22;10359270;28;20057;-80
2022/10/03 07:27:24;;;;;;;8.77;1.52;;;;;;;10.45;97.89;102348.66;10366079;28;20049;-81
2022/10/03 07:32:47;;;;;;;35.70;2.10;;;;;;;10.74;97.64;102347.22;10365698;28;20104;-81
2022/10/03 07:43:54;;;;;;;8.63;1.63;;;;;;;10.99;96.92;102360.44;10351645;28;20136;-79
2022/10/03 07:49:35;;;;;;;12.20;1.38;;;;;;;11.25;96.60;102366.75;10326997;28;20057;-80
2022/10/03 07:55:24;;;;;;;10.33;1.60;;;;;;;11.63;96.26;102375.19;10347966;28;20568;-82
2022/10/03 08:00:56;;;;;;;6.32;1.45;;;;;;;11.79;95.74;102374.94;10321055;28;20477;-81
2022/10/03 08:06:23;;;;;;;4.93;1.20;;;;;;;11.91;95.46;102387.63;10358199;28;20133;-80
2022/10/03 08:11:50;;;;;;;16.52;2.03;;;;;;;12.13;94.70;102399.84;10355733;28;20050;-80
2022/10/03 08:17:29;;;;;;;12.27;2.45;;;;;;;12.32;94.11;102401.38;10351718;28;20506;-79
2022/10/03 08:22:52;;;;;;;10.40;1.50;;;;;;;12.53;93.78;102398.63;10353400;28;20085;-82
2022/10/03 08:28:20;;;;;;;11.88;1.25;;;;;;;14.14;93.10;102398.41;10348952;28;20050;-80
2022/10/03 08:33:30;;;;;;;12.80;1.48;;;;;;;15.36;90.91;102410.34;10338484;28;20092;-80
2022/10/03 08:39:06;;;;;;;9.47;1.60;;;;;;;15.65;87.61;102412.75;10347830;28;20120;-79
2022/10/03 08:44:47;;;;;;;4.88;0.85;;;;;;;16.22;84.51;102411.31;10336738;28;20053;-80
2022/10/03 08:50:16;;;;;;;10.23;1.48;;;;;;;16.32;82.02;102422.97;10351284;28;20046;-78
2022/10/03 08:55:47;;;;;;;10.20;1.70;;;;;;;16.73;80.31;102408.75;10363371;28;20118;-77
2022/10/03 09:01:09;;;;;;;7.97;1.40;;;;;;;16.73;80.31;102408.75;10343957;28;20053;-78
2022/10/03 09:06:32;;;;;;;6.40;1.17;;;;;;;17.43;76.83;102423.97;10342483;28;20112;-77
2022/10/03 09:11:35;;;;;;;6.25;1.05;;;;;;;17.44;75.57;102426.69;10368855;28;20584;-78
2022/10/03 09:16:59;;;;;;;9.20;1.42;;;;;;;17.22;74.59;102429.84;10359767;28;20088;-77
2022/10/03 09:22:09;;;;;;;9.15;1.45;;;;;;;17.39;74.47;102424.81;10357046;28;20465;-77
2022/10/03 09:27:30;;;;;;;5.47;1.15;;;;;;;17.95;73.82;102423.84;10356929;28;20053;-77
2022/10/03 09:32:53;;;;;;;9.93;1.30;;;;;;;18.00;73.08;102427.47;10356153;28;20127;-76
2022/10/03 09:38:04;;;;;;;11.80;1.25;;;;;;;17.79;72.66;102433.31;10358904;28;20061;-77
2022/10/03 09:43:11;;;;;;;5.53;1.10;;;;;;;17.82;72.08;102426.31;10359760;28;20053;-76
2022/10/03 09:48:22;;;;;;;6.22;1.40;;;;;;;17.76;72.31;102412.06;10342501;28;20532;-76
2022/10/03 09:53:33;;;;;;;10.90;1.02;;;;;;;17.88;71.93;102422.84;10359155;28;20042;-76
2022/10/03 09:59:06;;;;;;;4.47;0.85;;;;;;;17.87;71.30;102412.25;10351818;28;20514;-76
2022/10/03 10:04:49;;;;;;;9.85;1.67;;;;;;;17.97;71.24;102419.44;10355031;28;20053;-75
2022/10/03 10:10:16;;;;;;;9.13;1.55;;;;;;;17.93;70.71;102421.19;10299548;28;20168;-75
2022/10/03 10:15:26;;;;;;;8.18;1.23;;;;;;;17.96;70.24;102423.00;10357245;28;20050;-75
2022/10/03 10:20:51;;;;;;;8.07;1.00;;;;;;;17.60;69.80;102413.66;10358859;28;20472;-76
2022/10/03 10:26:30;;;;;;;5.22;0.90;;;;;;;17.53;68.88;102419.72;10341172;28;20053;-74
2022/10/03 10:31:59;;;;;;;4.22;0.82;;;;;;;17.10;67.82;102412.91;10358345;28;20117;-76
2022/10/03 10:37:34;;;;;;;6.07;0.95;;;;;;;16.95;68.16;102412.69;10356365;28;20112;-76
2022/10/03 10:43:07;;;;;;;7.57;1.70;;;;;;;17.30;68.50;102405.28;10358043;28;20640;-75
2022/10/03 10:48:33;;;;;;;5.45;0.95;;;;;;;17.48;67.67;102412.59;10351220;28;20056;-75
2022/10/03 10:54:08;;;;;;;12.82;1.38;;;;;;;16.77;67.58;102416.75;10356614;28;20042;-75
2022/10/03 10:59:31;;;;;;;5.18;0.85;;;;;;;16.51;68.48;102415.38;10344709;28;20046;-75
2022/10/03 11:04:51;;;;;;;18.50;2.85;;;;;;;16.38;69.32;102411.66;10354574;28;20214;-75
2022/10/03 11:09:59;;;;;;;6.10;1.13;;;;;;;16.22;70.14;102415.72;10354332;28;20050;-73
2022/10/03 11:15:35;;;;;;;5.53;1.00;;;;;;;16.24;70.31;102409.63;10347190;28;20057;-75
2022/10/03 11:21:13;;;;;;;5.05;0.88;;;;;;;16.17;70.61;102409.44;10357918;28;20061;-76
2022/10/03 11:27:05;;;;;;;6.60;1.05;;;;;;;15.96;70.68;102408.16;10355319;28;20057;-75
2022/10/03 11:32:13;;;;;;;4.63;0.70;;;;;;;16.22;70.92;102406.03;10336874;28;20049;-74
2022/10/03 11:37:39;;;;;;;9.43;1.30;;;;;;;16.55;70.58;102407.53;10353082;28;20091;-75
2022/10/03 11:42:44;;;;;;;6.80;1.17;;;;;;;16.60;70.74;102402.31;10353550;28;20054;-75
2022/10/03 11:48:14;;;;;;;8.52;0.95;;;;;;;16.48;70.67;102410.03;10356332;28;20513;-75
2022/10/03 11:53:43;;;;;;;6.55;1.67;;;;;;;16.95;69.88;102416.19;10336029;28;20037;-75
2022/10/03 11:59:17;;;;;;;3.60;0.73;;;;;;;17.53;68.72;102409.13;10355891;28;20046;-75
2022/10/03 12:04:37;;;;;;;4.15;0.70;;;;;;;16.93;68.42;102406.44;10295024;28;20502;-75
2022/10/03 12:09:45;;;;;;;5.15;0.90;;;;;;;17.54;68.96;102397.69;10354632;28;20046;-76
2022/10/03 12:14:51;;;;;;;1.88;0.55;;;;;;;17.62;67.54;102403.97;10358259;28;20085;-75
2022/10/03 12:20:13;;;;;;;6.13;1.20;;;;;;;17.44;67.64;102397.56;10335904;28;20084;-75
2022/10/03 12:25:22;;;;;;;5.90;1.10;;;;;;;18.10;67.76;102396.63;10354385;28;20104;-75
2022/10/03 12:30:26;;;;;;;7.85;0.82;;;;;;;17.88;66.66;102390.16;10354496;28;20057;-75
2022/10/03 12:35:49;;;;;;;6.57;0.90;;;;;;;17.95;66.65;102386.75;10323197;28;20061;-74
2022/10/03 12:41:04;;;;;;;4.40;0.70;;;;;;;18.32;65.98;102387.16;10351367;28;20061;-72
2022/10/03 12:46:23;;;;;;;8.35;1.20;;;;;;;18.12;65.30;102393.16;10337600;28;20050;-75
2022/10/03 12:51:53;;;;;;;7.90;1.17;;;;;;;18.19;65.36;102387.03;10353352;28;20309;-74
2022/10/03 12:57:01;;;;;;;4.93;0.90;;;;;;;17.72;65.03;102386.44;10348086;28;20050;-73
2022/10/03 13:02:18;;;;;;;5.28;0.98;;;;;;;17.98;64.79;102382.34;10348569;28;20057;-75
2022/10/03 13:07:51;;;;;;;8.88;0.80;;;;;;;18.15;64.66;102390.53;10336342;28;20046;-74
2022/10/03 13:13:12;;;;;;;4.47;0.80;;;;;;;18.27;64.76;102388.88;10348945;28;20096;-75
2022/10/03 13:18:32;;;;;;;4.97;1.05;;;;;;;18.17;63.84;102390.53;10352747;28;20065;-74
2022/10/03 13:23:57;;;;;;;4.35;0.73;;;;;;;17.69;63.67;102394.34;10351643;28;20133;-74
2022/10/03 13:29:11;;;;;;;2.38;0.63;;;;;;;17.85;64.26;102383.06;10347143;28;20053;-74
2022/10/03 13:34:19;;;;;;;6.28;1.10;;;;;;;17.62;64.05;102381.00;10334595;28;20062;-74
2022/10/03 13:39:46;;;;;;;4.35;0.93;;;;;;;17.22;65.02;102376.91;10358388;28;20050;-73
2022/10/03 13:44:54;;;;;;;2.47;0.73;;;;;;;17.10;65.78;102383.81;10355964;28;20046;-76
2022/10/03 13:50:00;;;;;;;5.35;0.75;;;;;;;17.18;66.69;102375.09;10358127;28;20085;-74
2022/10/03 13:55:39;;;;;;;2.53;0.68;;;;;;;17.24;66.62;102376.06;10364485;28;20054;-79
2022/10/03 14:00:52;;;;;;;2.28;0.82;;;;;;;17.00;66.56;102379.22;10365098;28;20055;-81
2022/10/03 14:06:17;;;;;;;6.03;1.35;;;;;;;16.96;67.02;102377.41;10344057;28;20054;-77
2022/10/03 14:11:35;;;;;;;4.00;0.73;;;;;;;16.91;67.14;102376.44;10362287;28;20050;-78
2022/10/03 14:16:41;;;;;;;1.95;0.52;;;;;;;16.90;67.21;102375.56;10359105;28;20045;-78
2022/10/03 14:22:08;;;;;;;4.93;0.70;;;;;;;16.89;67.15;102368.47;10345053;28;20132;-78
2022/10/03 14:27:28;;;;;;;3.78;1.00;;;;;;;16.90;67.57;102370.28;10344613;28;20072;-78
2022/10/03 14:32:48;;;;;;;8.82;0.90;;;;;;;16.68;67.57;102365.44;10345184;28;20362;-78
2022/10/03 14:38:56;;;;;;;6.20;0.93;;;;;;;16.52;67.63;102357.25;10342361;28;20087;-80
2022/10/03 14:43:54;;;;;;;5.97;1.00;;;;;;;16.41;67.56;102359.69;10362926;28;20289;-79
2022/10/03 14:48:58;;;;;;;6.80;1.90;;;;;;;16.56;68.03;102358.22;10343590;28;20054;-79
2022/10/03 14:54:14;;;;;;;7.53;2.35;;;;;;;16.79;68.22;102348.88;10341120;28;20131;-79
2022/10/03 14:59:31;;;;;;;8.20;1.52;;;;;;;16.77;68.04;102349.75;10360405;28;20128;-80
2022/10/03 15:04:35;;;;;;;7.05;1.92;;;;;;;16.66;68.47;102338.97;10361818;28;20041;-79
2022/10/03 15:09:38;;;;;;;5.13;1.30;;;;;;;16.51;68.96;102344.00;10346004;28;20056;-80
2022/10/03 15:14:45;;;;;;;6.32;1.20;;;;;;;16.35;68.73;102346.38;10341273;28;20046;-79
2022/10/03 15:19:53;;;;;;;9.57;1.38;;;;;;;16.06;69.57;102341.44;10344658;28;20046;-79
2022/10/03 15:25:18;;;;;;;7.72;1.55;;;;;;;15.97;70.11;102341.25;10365235;28;20046;-79
2022/10/03 15:30:40;;;;;;;4.03;1.33;;;;;;;15.98;70.24;102331.59;10343471;28;20141;-79
2022/10/03 15:35:45;;;;;;;9.57;2.00;;;;;;;15.77;70.65;102338.19;10345132;28;20045;-79
2022/10/03 15:41:11;;;;;;;4.80;1.33;;;;;;;15.73;71.51;102326.69;10363656;28;20121;-79
2022/10/03 15:46:32;;;;;;;5.97;0.93;;;;;;;15.68;71.48;102332.72;10328788;28;20613;-79
2022/10/03 15:51:37;;;;;;;6.55;1.00;;;;;;;15.66;72.00;102330.06;10363473;28;20044;-80
2022/10/03 15:56:43;;;;;;;2.33;0.60;;;;;;;15.57;71.84;102329.88;10363355;28;20054;-79
2022/10/03 16:01:51;;;;;;;2.58;0.75;;;;;;;15.52;72.35;102326.22;10346554;28;20105;-79
2022/10/03 16:07:24;;;;;;;8.43;1.17;;;;;;;15.41;72.64;102319.84;10345204;28;20081;-78
2022/10/03 16:12:51;;;;;;;3.67;1.00;;;;;;;15.24;72.77;102325.63;10359198;28;20042;-78
2022/10/03 16:18:00;;;;;;;6.60;0.93;;;;;;;15.11;73.24;102318.28;10346306;28;20294;-80
2022/10/03 16:23:10;;;;;;;4.57;0.90;;;;;;;14.94;73.40;102310.88;10349694;28;20564;-80
2022/10/03 16:28:38;;;;;;;4.40;1.02;;;;;;;14.80;73.79;102317.56;10345846;28;20049;-78
2022/10/03 16:34:11;;;;;;;8.82;2.45;;;;;;;14.62;74.24;102321.56;10332149;28;20046;-80
2022/10/03 16:39:31;;;;;;;9.32;1.60;;;;;;;14.50;74.52;102318.56;10316865;28;20112;-79
2022/10/03 16:44:49;;;;;;;7.72;1.75;;;;;;;14.40;74.82;102306.91;10362446;28;20257;-79
2022/10/03 16:55:25;;;;;;;7.68;1.50;;;;;;;14.10;75.89;102307.88;10336545;28;20046;-79
2022/10/03 17:00:40;;;;;;;7.70;1.55;;;;;;;13.89;76.40;102308.19;10347258;28;20041;-79
2022/10/03 17:05:46;;;;;;;7.05;1.40;;;;;;;13.68;77.02;102303.22;10361525;28;20100;-79
2022/10/03 17:10:53;;;;;;;6.32;1.67;;;;;;;13.54;77.53;102305.47;10344582;28;20065;-79
2022/10/03 17:16:36;;;;;;;4.78;1.60;;;;;;;13.33;78.27;102310.94;10363484;28;20141;-79
2022/10/03 17:21:42;;;;;;;5.93;1.50;;;;;;;13.14;79.12;102321.75;10361241;28;20053;-78
2022/10/03 17:26:48;;;;;;;8.02;1.58;;;;;;;12.91;79.60;102314.91;10341164;28;20572;-80
2022/10/03 17:32:01;;;;;;;9.02;1.65;;;;;;;12.73;80.52;102317.84;10371163;28;20130;-80
2022/10/03 17:37:13;;;;;;;8.57;2.45;;;;;;;12.57;81.05;102304.16;10352662;28;20057;-80
2022/10/03 17:42:26;;;;;;;8.15;2.30;;;;;;;12.42;81.67;102308.06;10360985;28;20050;-79
2022/10/03 17:47:49;;;;;;;10.23;2.90;;;;;;;12.29;82.46;102296.22;10339751;28;20066;-79
2022/10/03 17:52:53;;;;;;;11.68;3.30;;;;;;;12.13;82.87;102302.69;10350907;28;20249;-80
2022/10/03 17:58:01;;;;;;;8.60;2.88;;;;;;;12.00;83.40;102313.59;10351487;28;20081;-80
2022/10/03 18:03:25;;;;;;;10.52;3.00;;;;;;;11.85;83.79;102306.91;10348663;28;20046;-80
2022/10/03 18:08:36;;;;;;;7.63;3.08;;;;;;;11.72;84.46;102293.31;10349602;28;20080;-79
2022/10/03 18:13:46;;;;;;;11.98;3.35;;;;;;;11.61;84.75;102290.31;10352000;28;20081;-78
2022/10/03 18:19:06;;;;;;;10.35;3.70;;;;;;;11.49;85.12;102290.72;10353144;28;20046;-79
2022/10/03 18:24:32;;;;;;;9.15;3.60;;;;;;;11.39;85.57;102293.84;10374673;28;20053;-79
2022/10/03 18:29:50;;;;;;;25.98;7.22;;;;;;;11.24;85.85;102299.41;10339643;28;20061;-79
2022/10/03 18:35:03;;;;;;;17.48;4.72;;;;;;;11.09;86.21;102297.06;10356139;28;20092;-79
2022/10/03 18:40:22;;;;;;;16.92;6.00;;;;;;;10.97;86.54;102289.63;10360683;28;20077;-79
2022/10/03 18:45:32;;;;;;;12.93;5.18;;;;;;;10.86;86.76;102297.06;10363303;28;20050;-80
2022/10/03 18:50:57;;;;;;;15.05;5.45;;;;;;;10.76;87.10;102298.44;10344268;28;20064;-79
2022/10/03 18:56:04;;;;;;;13.27;5.05;;;;;;;10.67;87.26;102292.78;10363092;28;20049;-80
2022/10/03 19:01:23;;;;;;;10.02;3.97;;;;;;;10.61;87.75;102298.69;10350592;28;20681;-79
2022/10/03 19:06:30;;;;;;;14.87;4.50;;;;;;;10.52;87.73;102290.44;10339101;28;20053;-79
2022/10/03 19:11:39;;;;;;;15.50;4.00;;;;;;;10.38;88.07;102282.00;10332920;28;20576;-79
2022/10/03 19:16:56;;;;;;;10.88;3.70;;;;;;;10.26;88.29;102286.72;10325251;28;20650;-78
2022/10/03 19:22:05;;;;;;;11.17;3.10;;;;;;;10.18;88.42;102273.28;10343968;28;20077;-80
2022/10/03 19:27:14;;;;;;;7.70;3.00;;;;;;;10.06;88.55;102275.41;10342304;28;20491;-80
2022/10/03 19:32:44;;;;;;;11.48;4.63;;;;;;;9.96;88.69;102278.44;10356332;28;20412;-80
2022/10/03 19:37:52;;;;;;;11.98;4.32;;;;;;;9.91;89.01;102275.63;10362302;28;20044;-80
2022/10/03 19:43:18;;;;;;;12.55;4.90;;;;;;;9.84;88.97;102271.84;10384660;28;20112;-79
2022/10/03 19:48:21;;;;;;;13.02;4.47;;;;;;;9.77;89.18;102279.34;10350051;28;20057;-80
2022/10/03 19:53:23;;;;;;;12.02;5.35;;;;;;;9.75;89.44;102270.56;10352718;28;20046;-80
2022/10/03 19:58:27;;;;;;;15.20;4.47;;;;;;;9.67;89.61;102265.88;10358039;28;20065;-80
2022/10/03 20:03:51;;;;;;;8.00;3.40;;;;;;;9.60;89.70;102261.19;10332606;28;20045;-79
2022/10/03 20:09:18;;;;;;;9.35;2.65;;;;;;;9.60;90.03;102274.25;10314585;28;20085;-81
2022/10/03 20:14:26;;;;;;;8.93;3.95;;;;;;;9.57;90.21;102266.28;10337897;28;20069;-80
2022/10/03 20:19:53;;;;;;;11.52;3.83;;;;;;;9.58;90.40;102268.06;10332795;28;20120;-79
2022/10/03 20:24:57;;;;;;;6.03;2.75;;;;;;;9.58;90.81;102262.84;10342895;28;20069;-80
2022/10/03 20:30:05;;;;;;;13.95;2.40;;;;;;;9.57;90.93;102255.81;10339719;28;20060;-80
2022/10/03 20:35:13;;;;;;;6.10;1.95;;;;;;;9.58;91.21;102256.69;10358728;28;20046;-79
2022/10/03 20:40:34;;;;;;;5.90;2.25;;;;;;;9.62;91.45;102267.34;10358149;28;20081;-80
2022/10/03 20:45:37;;;;;;;;;;;;;;;9.60;91.44;102266.41;10345606;28;20053;-80
2022/10/03 20:50:45;;;;;;;6.75;1.60;;;;;;;9.54;91.43;102259.19;10351942;28;20023;-79
2022/10/03 20:56:05;;;;;;;5.25;1.70;;;;;;;9.56;91.58;102259.25;10385698;28;20042;-81
2022/10/03 21:01:15;;;;;;;8.88;1.70;;;;;;;9.52;91.59;102257.34;10349208;28;20046;-81
2022/10/03 21:06:25;;;;;;;4.70;1.83;;;;;;;9.46;91.97;102265.81;10375650;28;20088;-80
2022/10/03 21:11:29;;;;;;;6.77;2.83;;;;;;;9.40;91.76;102256.75;10334646;28;20060;-81
2022/10/03 21:16:43;;;;;;;5.55;2.22;;;;;;;9.36;91.93;102256.63;10348836;28;20062;-79
2022/10/03 21:21:51;;;;;;;8.85;1.92;;;;;;;9.31;92.03;102247.69;10359949;28;20588;-80
2022/10/03 21:26:57;;;;;;;7.70;2.42;;;;;;;9.20;92.22;102252.44;10376238;28;20124;-81
2022/10/03 21:32:27;;;;;;;12.68;3.75;;;;;;;9.10;91.88;102242.38;10342759;28;20066;-80
2022/10/03 21:37:35;;;;;;;9.13;3.28;;;;;;;9.05;92.14;102248.22;10365497;28;20050;-79
2022/10/03 21:42:52;;;;;;;10.02;3.35;;;;;;;8.96;92.02;102243.44;10331154;28;20081;-80
2022/10/03 21:48:03;;;;;;;8.40;3.30;;;;;;;8.84;91.98;102233.31;10343533;28;20053;-80
2022/10/03 21:53:34;;;;;;;9.27;3.15;;;;;;;8.77;92.07;102237.34;10323471;28;20046;-80
2022/10/03 21:58:48;;;;;;;8.10;3.13;;;;;;;8.75;92.39;102235.47;10355662;28;20054;-80
2022/10/03 22:04:03;;;;;;;8.30;3.08;;;;;;;8.68;92.04;102236.91;10366008;28;20473;-81
2022/10/03 22:09:13;;;;;;;5.28;2.53;;;;;;;8.70;92.34;102239.59;10360655;28;20050;-79
2022/10/03 22:14:52;;;;;;;7.15;2.60;;;;;;;8.66;92.32;102229.00;10369553;28;20418;-81
2022/10/03 22:20:18;;;;;;;8.85;2.65;;;;;;;8.66;92.49;102243.75;10356798;28;20050;-80
2022/10/03 22:25:43;;;;;;;8.67;3.60;;;;;;;8.66;92.35;102229.00;10334966;28;20056;-80
2022/10/03 22:31:07;;;;;;;6.57;2.70;;;;;;;8.72;92.66;102222.28;10350204;28;20053;-81
2022/10/03 22:36:17;;;;;;;9.05;2.58;;;;;;;8.82;92.71;102214.94;10346483;28;20054;-80
2022/10/03 22:41:26;;;;;;;6.28;2.88;;;;;;;8.92;92.73;102225.84;10342428;28;20046;-80
2022/10/03 22:46:30;;;;;;;5.93;2.45;;;;;;;9.03;93.06;102212.44;10362248;28;20053;-81
2022/10/03 22:51:35;;;;;;;10.70;2.85;;;;;;;9.15;93.32;102209.50;10364134;28;20054;-80
2022/10/03 22:56:57;;;;;;;7.70;3.20;;;;;;;9.28;93.46;102202.25;10366604;28;20054;-79
2022/10/03 23:02:03;;;;;;;10.55;3.17;;;;;;;9.40;93.70;102183.56;10351690;28;20050;-79
2022/10/03 23:07:08;;;;;;;9.55;2.85;;;;;;;9.49;93.89;102176.16;10355300;28;20056;-80
2022/10/03 23:12:10;;;;;;;7.07;3.08;;;;;;;9.50;94.17;102165.75;10370774;28;20398;-80
2022/10/03 23:18:03;;;;;;;8.80;2.88;;;;;;;9.54;94.29;102170.28;10342817;28;20057;-80
2022/10/03 23:23:13;;;;;;;10.20;2.92;;;;;;;9.58;94.61;102168.69;10323694;28;20062;-80
2022/10/03 23:28:50;;;;;;;11.63;3.50;;;;;;;9.60;94.77;102166.16;10360798;28;20133;-79
2022/10/03 23:33:52;;;;;;;8.85;3.20;;;;;;;9.62;94.84;102154.03;10351951;28;20038;-80
2022/10/03 23:38:58;;;;;;;10.75;2.97;;;;;;;9.63;94.80;102161.06;10321456;28;20498;-80
2022/10/03 23:44:00;;;;;;;8.60;2.78;;;;;;;9.62;95.05;102165.38;10360198;28;20090;-80
2022/10/03 23:49:02;;;;;;;9.63;2.97;;;;;;;9.63;95.12;102148.84;10361498;28;20073;-80
2022/10/03 23:54:18;;;;;;;9.30;2.88;;;;;;;9.67;95.09;102155.13;10339363;28;20422;-79
2022/10/03 23:59:24;;;;;;;6.53;2.67;;;;;;;9.62;95.09;102149.69;10359656;28;20529;-81
